createdAt,value
2019-04-20T00:00:54.667Z,12.72
2019-04-20T00:03:23.715Z,12.65
2019-04-20T00:05:53.113Z,12.59
2019-04-20T00:08:26.365Z,12.63
2019-04-20T00:11:00.177Z,12.57
2019-04-20T00:13:33.122Z,12.57
2019-04-20T00:15:53.636Z,12.53
2019-04-20T00:18:28.062Z,12.52
2019-04-20T00:21:00.348Z,12.44
2019-04-20T00:23:33.472Z,12.45
2019-04-20T00:26:32.900Z,12.35
2019-04-20T00:29:07.539Z,12.32
2019-04-20T00:31:39.310Z,12.36
2019-04-20T00:33:59.154Z,12.30
2019-04-20T00:36:20.154Z,12.32
2019-04-20T00:38:53.421Z,12.30
2019-04-20T00:41:21.221Z,12.21
2019-04-20T00:43:49.414Z,12.23
2019-04-20T00:46:26.420Z,12.16
2019-04-20T00:48:55.955Z,12.17
2019-04-20T00:51:35.225Z,12.05
2019-04-20T00:53:52.345Z,12.15
2019-04-20T00:56:18.709Z,12.19
2019-04-20T00:58:55.780Z,12.17
2019-04-20T01:01:37.844Z,12.17
2019-04-20T01:04:10.980Z,12.05
2019-04-20T01:06:49.210Z,12.09
2019-04-20T01:09:20.341Z,12.04
2019-04-20T01:11:50.119Z,11.96
2019-04-20T01:14:27.343Z,11.87
2019-04-20T01:16:56.896Z,11.96
2019-04-20T01:19:20.649Z,11.89
2019-04-20T01:21:59.203Z,11.93
2019-04-20T01:24:27.594Z,11.95
2019-04-20T01:26:55.160Z,11.92
2019-04-20T01:29:27.970Z,11.84
2019-04-20T01:32:06.132Z,11.90
2019-04-20T01:34:37.987Z,11.70
2019-04-20T01:37:05.636Z,11.82
2019-04-20T01:39:28.717Z,11.69
2019-04-20T01:41:52.007Z,11.77
2019-04-20T01:44:27.006Z,11.77
2019-04-20T01:46:55.226Z,11.74
2019-04-20T01:49:25.387Z,11.69
2019-04-20T01:52:00.693Z,11.63
2019-04-20T01:54:41.782Z,11.65
2019-04-20T01:57:02.651Z,11.65
2019-04-20T01:59:44.883Z,11.53
2019-04-20T02:02:16.579Z,11.56
2019-04-20T02:04:47.299Z,11.57
2019-04-20T02:07:18.442Z,11.37
2019-04-20T02:09:51.412Z,11.20
2019-04-20T02:12:21.896Z,11.19
2019-04-20T02:14:51.764Z,11.09
2019-04-20T02:17:25.833Z,11.12
2019-04-20T02:20:05.411Z,11.25
2019-04-20T02:22:34.224Z,11.24
2019-04-20T02:24:46.724Z,11.24
2019-04-20T02:27:20.648Z,11.22
2019-04-20T02:30:13.517Z,11.27
2019-04-20T02:32:55.610Z,11.21
2019-04-20T02:35:27.870Z,11.18
2019-04-20T02:40:45.179Z,11.01
2019-04-20T02:43:09.477Z,11.05
2019-04-20T02:48:01.239Z,11.05
2019-04-20T02:50:30.435Z,11.01
2019-04-20T02:53:04.539Z,11.02
2019-04-20T03:00:25.420Z,10.82
2019-04-20T03:02:43.081Z,10.76
2019-04-20T03:05:13.339Z,10.75
2019-04-20T03:07:50.346Z,10.69
2019-04-20T03:10:17.959Z,10.71
2019-04-20T03:12:50.584Z,10.69
2019-04-20T03:15:22.166Z,10.45
2019-04-20T03:17:51.216Z,10.52
2019-04-20T03:20:25.521Z,10.52
2019-04-20T03:23:11.708Z,10.54
2019-04-20T03:25:43.110Z,10.51
2019-04-20T03:28:10.315Z,10.37
2019-04-20T03:35:51.111Z,10.21
2019-04-20T03:38:14.737Z,10.09
2019-04-20T03:40:37.321Z,10.07
2019-04-20T03:42:54.810Z,10.04
2019-04-20T03:45:25.364Z,10.05
2019-04-20T03:48:06.916Z,9.98
2019-04-20T03:50:46.352Z,9.91
2019-04-20T03:53:19.248Z,9.82
2019-04-20T03:55:47.495Z,9.76
2019-04-20T03:58:19.809Z,9.68
2019-04-20T04:00:59.484Z,9.71
2019-04-20T04:03:47.583Z,9.77
2019-04-20T04:06:10.533Z,9.70
2019-04-20T04:08:37.287Z,9.64
2019-04-20T04:11:16.327Z,9.61
2019-04-20T04:13:29.518Z,9.60
2019-04-20T04:16:03.256Z,9.61
2019-04-20T04:18:35.336Z,9.55
2019-04-20T04:21:03.857Z,9.61
2019-04-20T04:23:47.110Z,9.61
2019-04-20T04:26:16.097Z,9.54
2019-04-20T04:28:46.348Z,9.47
2019-04-20T04:31:16.500Z,9.50
2019-04-20T04:33:55.842Z,9.48
2019-04-20T04:36:15.576Z,9.55
2019-04-20T04:38:56.120Z,9.57
2019-04-20T04:43:53.983Z,9.48
2019-04-20T04:46:01.705Z,9.54
2019-04-20T04:48:35.730Z,9.59
2019-04-20T04:51:08.393Z,9.54
2019-04-20T04:53:45.215Z,9.63
2019-04-20T04:56:08.757Z,9.64
2019-04-20T04:58:31.939Z,9.71
2019-04-20T05:01:05.688Z,9.75
2019-04-20T05:03:54.165Z,9.77
2019-04-20T05:06:25.286Z,9.80
2019-04-20T05:08:43.611Z,9.78
2019-04-20T05:11:08.993Z,9.84
2019-04-20T05:13:46.745Z,9.99
2019-04-20T05:16:26.986Z,9.86
2019-04-20T05:19:10.542Z,10.04
2019-04-20T05:21:25.479Z,10.23
2019-04-20T05:24:00.703Z,10.31
2019-04-20T05:26:42.415Z,10.51
2019-04-20T05:29:02.778Z,10.64
2019-04-20T05:31:23.223Z,10.70
2019-04-20T05:34:14.370Z,11.00
2019-04-20T05:36:42.653Z,11.11
2019-04-20T05:39:22.416Z,11.24
2019-04-20T05:41:41.748Z,11.44
2019-04-20T05:44:08.754Z,11.60
2019-04-20T05:46:47.673Z,11.79
2019-04-20T05:49:17.671Z,11.88
2019-04-20T05:51:46.189Z,12.07
2019-04-20T05:54:27.745Z,12.33
2019-04-20T05:56:47.847Z,12.52
2019-04-20T05:59:15.242Z,12.60
2019-04-20T06:01:52.777Z,12.91
2019-04-20T06:04:17.272Z,13.01
2019-04-20T06:06:49.423Z,13.24
2019-04-20T06:09:22.713Z,13.53
2019-04-20T06:12:04.557Z,13.27
2019-04-20T06:14:08.145Z,13.63
2019-04-20T06:16:55.744Z,13.89
2019-04-20T06:19:32.018Z,14.08
2019-04-20T06:22:00.990Z,14.40
2019-04-20T06:24:37.538Z,14.31
2019-04-20T06:27:19.588Z,14.83
2019-04-20T06:29:31.178Z,14.75
2019-04-20T06:32:06.591Z,15.28
2019-04-20T06:34:42.604Z,15.37
2019-04-20T06:37:19.448Z,15.57
2019-04-20T06:39:40.408Z,15.52
2019-04-20T06:42:09.905Z,16.03
2019-04-20T06:44:46.369Z,16.28
2019-04-20T06:54:58.125Z,16.90
2019-04-20T06:57:35.711Z,17.58
2019-04-20T07:00:10.228Z,17.62
2019-04-20T07:02:38.617Z,17.95
2019-04-20T07:05:05.651Z,18.21
2019-04-20T07:07:36.054Z,17.98
2019-04-20T07:10:15.128Z,18.27
2019-04-20T07:12:34.386Z,18.82
2019-04-20T07:14:55.625Z,18.88
2019-04-20T07:20:09.953Z,18.88
2019-04-20T07:23:03.598Z,19.46
2019-04-20T07:25:20.273Z,19.89
2019-04-20T07:27:49.685Z,20.25
2019-04-20T07:30:16.269Z,20.37
2019-04-20T07:32:54.907Z,20.70
2019-04-20T07:35:19.844Z,20.35
2019-04-20T07:40:20.367Z,21.23
2019-04-20T07:45:26.163Z,21.42
2019-04-20T07:50:18.667Z,21.34
2019-04-20T07:52:43.055Z,21.47
2019-04-20T07:57:47.131Z,22.33
2019-04-20T08:00:31.989Z,22.68
2019-04-20T08:03:18.376Z,22.34
2019-04-20T08:05:47.058Z,22.49
2019-04-20T08:08:27.162Z,22.45
2019-04-20T08:10:55.365Z,23.14
2019-04-20T08:13:35.957Z,23.38
2019-04-20T08:15:57.058Z,25.31
2019-04-20T08:20:57.656Z,26.68
2019-04-20T08:23:35.959Z,26.58
2019-04-20T08:25:47.329Z,28.21
2019-04-20T08:28:16.702Z,26.76
2019-04-20T08:31:09.283Z,27.43
2019-04-20T08:33:44.327Z,29.26
2019-04-20T08:36:18.339Z,29.90
2019-04-20T08:39:06.819Z,29.48
2019-04-20T08:41:12.934Z,29.16
2019-04-20T08:46:18.187Z,28.66
2019-04-20T08:48:46.104Z,28.35
2019-04-20T08:51:22.652Z,28.37
2019-04-20T08:53:46.783Z,30.05
2019-04-20T08:56:11.851Z,28.59
2019-04-20T08:58:29.533Z,29.73
2019-04-20T09:01:03.581Z,28.71
2019-04-20T09:03:37.563Z,29.73
2019-04-20T09:06:06.416Z,30.28
2019-04-20T09:08:43.607Z,30.60
2019-04-20T09:11:15.356Z,29.39
2019-04-20T09:13:38.925Z,30.60
2019-04-20T09:16:02.001Z,29.84
2019-04-20T09:18:43.346Z,30.00
2019-04-20T09:21:13.993Z,30.59
2019-04-20T09:23:45.086Z,31.38
2019-04-20T09:26:23.157Z,29.73
2019-04-20T09:28:53.454Z,31.34
2019-04-20T09:31:21.452Z,30.10
2019-04-20T09:33:55.636Z,30.58
2019-04-20T09:36:29.208Z,31.97
2019-04-20T09:39:12.109Z,30.01
2019-04-20T09:41:59.146Z,29.91
2019-04-20T09:44:08.889Z,31.00
2019-04-20T09:46:45.327Z,29.05
2019-04-20T09:49:18.848Z,29.49
2019-04-20T09:51:55.267Z,29.96
2019-04-20T09:54:27.045Z,29.96
2019-04-20T09:57:02.150Z,29.53
2019-04-20T09:59:28.982Z,29.31
2019-04-20T10:01:45.349Z,32.27
2019-04-20T10:04:09.204Z,33.52
2019-04-20T10:06:37.787Z,32.59
2019-04-20T10:09:09.574Z,31.86
2019-04-20T10:11:40.834Z,31.91
2019-04-20T10:14:08.371Z,32.49
2019-04-20T10:16:37.904Z,33.45
2019-04-20T10:19:07.847Z,34.78
2019-04-20T10:21:38.195Z,34.16
2019-04-20T10:24:06.767Z,34.29
2019-04-20T10:26:36.373Z,33.88
2019-04-20T10:29:05.707Z,34.56
2019-04-20T10:31:35.751Z,33.61
2019-04-20T10:34:04.683Z,35.03
2019-04-20T10:36:43.815Z,34.77
2019-04-20T10:39:12.915Z,35.33
2019-04-20T10:41:49.095Z,35.09
2019-04-20T10:44:12.343Z,34.98
2019-04-20T10:46:40.961Z,35.17
2019-04-20T10:49:09.807Z,34.84
2019-04-20T10:51:40.070Z,32.75
2019-04-20T10:54:08.818Z,31.34
2019-04-20T10:56:37.607Z,30.72
2019-04-20T10:59:06.086Z,30.32
2019-04-20T11:01:35.746Z,29.10
2019-04-20T11:04:04.911Z,28.81
2019-04-20T11:06:34.527Z,28.03
2019-04-20T11:09:04.680Z,27.66
2019-04-20T11:11:34.060Z,27.30
2019-04-20T11:14:11.543Z,27.05
2019-04-20T11:16:34.252Z,26.40
2019-04-20T11:19:03.306Z,25.76
2019-04-20T11:21:32.361Z,25.75
2019-04-20T11:24:02.266Z,24.84
2019-04-20T11:26:32.180Z,25.12
2019-04-20T11:29:02.108Z,25.03
2019-04-20T11:31:37.278Z,24.89
2019-04-20T11:34:01.039Z,24.43
2019-04-20T11:36:30.906Z,24.36
2019-04-20T11:39:00.503Z,24.39
2019-04-20T11:41:32.362Z,23.93
2019-04-20T11:43:59.822Z,23.81
2019-04-20T11:46:28.404Z,23.45
2019-04-20T11:48:57.302Z,23.12
2019-04-20T11:51:25.849Z,22.93
2019-04-20T11:53:54.447Z,23.02
2019-04-20T11:56:28.035Z,22.70
2019-04-20T11:58:53.213Z,22.31
2019-04-20T12:01:32.866Z,22.62
2019-04-20T12:04:01.745Z,22.55
2019-04-20T12:06:26.371Z,22.64
2019-04-20T12:08:54.947Z,22.77
2019-04-20T12:11:33.914Z,22.79
2019-04-20T12:13:54.492Z,22.65
2019-04-20T12:16:23.623Z,22.68
2019-04-20T12:18:52.495Z,22.47
2019-04-20T12:21:21.174Z,22.60
2019-04-20T12:23:49.660Z,22.60
2019-04-20T12:26:18.641Z,22.49
2019-04-20T12:28:47.554Z,22.59
2019-04-20T12:31:20.471Z,22.44
2019-04-20T12:33:46.582Z,22.39
2019-04-20T12:36:16.364Z,22.40
2019-04-20T12:38:46.126Z,22.23
2019-04-20T12:41:16.150Z,22.24
2019-04-20T12:43:45.725Z,22.39
2019-04-20T12:46:17.911Z,22.38
2019-04-20T12:48:44.612Z,22.33
2019-04-20T12:51:13.374Z,22.17
2019-04-20T12:53:42.609Z,22.25
2019-04-20T12:56:12.655Z,22.44
2019-04-20T12:58:43.371Z,22.41
2019-04-20T13:01:12.189Z,22.31
2019-04-20T13:03:41.535Z,22.39
2019-04-20T13:06:10.126Z,22.50
2019-04-20T13:08:46.012Z,22.51
2019-04-20T13:11:28.762Z,22.53
2019-04-20T13:14:16.709Z,22.50
2019-04-20T13:16:48.331Z,22.45
2019-04-20T13:19:15.517Z,22.35
2019-04-20T13:21:45.141Z,22.38
2019-04-20T13:24:13.686Z,22.36
2019-04-20T13:26:42.777Z,22.27
2019-04-20T13:29:11.434Z,22.21
2019-04-20T13:31:40.065Z,22.30
2019-04-20T13:34:09.633Z,22.27
2019-04-20T13:36:38.229Z,22.36
2019-04-20T13:39:08.233Z,22.21
2019-04-20T13:41:38.036Z,22.31
2019-04-20T13:44:08.236Z,22.24
2019-04-20T13:46:37.040Z,22.33
2019-04-20T13:49:06.929Z,22.21
2019-04-20T13:51:36.642Z,22.19
2019-04-20T13:54:06.309Z,22.12
2019-04-20T13:56:35.621Z,22.18
2019-04-20T13:59:21.583Z,22.20
2019-04-20T14:02:01.001Z,22.11
2019-04-20T14:04:32.744Z,22.02
2019-04-20T14:07:01.890Z,22.06
2019-04-20T14:09:30.468Z,21.91
2019-04-20T14:12:11.878Z,22.00
2019-04-20T14:14:29.216Z,21.97
2019-04-20T14:16:58.945Z,21.93
2019-04-20T14:19:27.616Z,21.94
2019-04-20T14:21:56.472Z,21.86
2019-04-20T14:24:25.044Z,21.92
2019-04-20T14:26:54.751Z,21.84
2019-04-20T14:29:23.307Z,21.83
2019-04-20T14:31:52.109Z,21.83
2019-04-20T14:34:20.767Z,21.78
2019-04-20T14:36:49.301Z,21.81
2019-04-20T14:39:18.299Z,21.73
2019-04-20T14:41:46.946Z,21.75
2019-04-20T14:44:16.128Z,21.76
2019-04-20T14:46:45.537Z,21.73
2019-04-20T14:49:14.720Z,21.67
2019-04-20T14:51:43.686Z,21.65
2019-04-20T14:54:13.756Z,21.59
2019-04-20T14:56:43.471Z,21.62
2019-04-20T14:59:19.971Z,21.58
2019-04-20T15:01:50.913Z,21.58
2019-04-20T15:04:22.058Z,21.54
2019-04-20T15:06:50.628Z,21.55
2019-04-20T15:09:19.212Z,21.52
2019-04-20T15:11:48.481Z,21.53
2019-04-20T15:14:18.576Z,21.55
2019-04-20T15:16:48.636Z,21.53
2019-04-20T15:19:18.936Z,21.49
2019-04-20T15:21:49.458Z,21.46
2019-04-20T15:24:18.145Z,21.46
2019-04-20T15:26:46.712Z,21.41
2019-04-20T15:29:15.213Z,21.40
2019-04-20T15:31:44.009Z,21.39
2019-04-20T15:34:12.939Z,21.39
2019-04-20T15:36:42.264Z,21.39
2019-04-20T15:39:11.431Z,21.40
2019-04-20T15:41:41.053Z,21.38
2019-04-20T15:44:11.252Z,21.29
2019-04-20T15:46:40.485Z,21.33
2019-04-20T15:49:10.278Z,21.26
2019-04-20T15:51:39.774Z,21.24
2019-04-20T15:54:09.509Z,21.23
2019-04-20T15:56:42.505Z,21.20
2019-04-20T15:59:08.495Z,21.19
2019-04-20T16:01:38.613Z,21.19
2019-04-20T16:04:22.871Z,21.20
2019-04-20T16:06:45.275Z,21.13
2019-04-20T16:09:15.634Z,21.10
2019-04-20T16:11:44.762Z,21.06
2019-04-20T16:14:13.674Z,21.04
2019-04-20T16:16:42.579Z,21.03
2019-04-20T16:19:25.852Z,20.98
2019-04-20T16:21:41.668Z,20.99
2019-04-20T16:24:12.942Z,20.98
2019-04-20T16:26:47.326Z,20.92
2019-04-20T16:29:15.887Z,20.86
2019-04-20T16:31:48.116Z,20.88
2019-04-20T16:34:15.946Z,20.82
2019-04-20T16:36:44.604Z,20.72
2019-04-20T16:39:14.447Z,20.74
2019-04-20T16:41:44.371Z,20.72
2019-04-20T16:44:13.479Z,20.69
2019-04-20T16:46:42.470Z,20.63
2019-04-20T16:49:11.032Z,20.60
2019-04-20T16:51:40.767Z,20.55
2019-04-20T16:54:10.099Z,20.48
2019-04-20T16:56:39.034Z,20.49
2019-04-20T16:59:10.271Z,20.43
2019-04-20T17:01:37.904Z,20.36
2019-04-20T17:04:11.133Z,20.37
2019-04-20T17:06:38.295Z,20.35
2019-04-20T17:09:07.507Z,20.31
2019-04-20T17:11:36.247Z,20.26
2019-04-20T17:14:06.527Z,20.23
2019-04-20T17:16:35.607Z,20.17
2019-04-20T17:19:04.211Z,20.13
2019-04-20T17:21:34.206Z,20.11
2019-04-20T17:24:03.677Z,20.07
2019-04-20T17:26:34.944Z,20.01
2019-04-20T17:29:05.972Z,19.93
2019-04-20T17:31:39.918Z,19.88
2019-04-20T17:34:27.094Z,19.84
2019-04-20T17:36:40.412Z,19.80
2019-04-20T17:39:13.438Z,19.79
2019-04-20T17:41:56.001Z,19.73
2019-04-20T17:44:29.137Z,19.68
2019-04-20T17:46:52.158Z,19.65
2019-04-20T17:49:27.655Z,19.59
2019-04-20T17:52:05.040Z,19.52
2019-04-20T17:54:29.363Z,19.44
2019-04-20T17:56:58.229Z,19.43
2019-04-20T17:59:26.723Z,19.38
2019-04-20T18:02:17.785Z,19.36
2019-04-20T18:07:31.225Z,19.24
2019-04-20T18:09:56.232Z,19.16
2019-04-20T18:12:15.472Z,19.08
2019-04-20T18:14:54.790Z,19.08
2019-04-20T18:17:25.766Z,19.01
2019-04-20T18:19:58.911Z,19.00
2019-04-20T18:22:27.856Z,18.96
2019-04-20T18:25:19.285Z,18.85
2019-04-20T18:27:41.105Z,18.84
2019-04-20T18:30:16.029Z,18.83
2019-04-20T18:32:31.491Z,18.75
2019-04-20T18:35:05.328Z,18.76
2019-04-20T18:37:32.749Z,18.65
2019-04-20T18:40:06.184Z,18.62
2019-04-20T18:42:38.108Z,18.61
2019-04-20T18:45:21.720Z,18.56
2019-04-20T18:47:49.667Z,18.42
2019-04-20T18:50:10.780Z,18.42
2019-04-20T18:52:33.791Z,18.38
2019-04-20T18:55:07.473Z,18.31
2019-04-20T18:57:34.331Z,18.32
2019-04-20T19:00:04.633Z,18.25
2019-04-20T19:02:40.111Z,18.17
2019-04-20T19:05:08.632Z,18.10
2019-04-20T19:07:42.538Z,18.06
2019-04-20T19:10:16.604Z,18.05
2019-04-20T19:12:49.670Z,17.95
2019-04-20T19:15:43.928Z,17.93
2019-04-20T19:18:06.980Z,17.88
2019-04-20T19:20:31.381Z,17.82
2019-04-20T19:23:02.154Z,17.73
2019-04-20T19:25:34.641Z,17.79
2019-04-20T19:28:02.938Z,17.69
2019-04-20T19:30:42.591Z,17.69
2019-04-20T19:33:19.036Z,17.69
2019-04-20T19:35:41.858Z,17.62
2019-04-20T19:38:10.358Z,17.60
2019-04-20T19:40:45.674Z,17.51
2019-04-20T19:43:15.947Z,17.43
2019-04-20T19:45:55.852Z,17.39
2019-04-20T19:48:17.458Z,17.33
2019-04-20T19:50:59.007Z,17.26
2019-04-20T19:53:26.423Z,17.20
2019-04-20T19:55:47.750Z,17.19
2019-04-20T19:58:19.160Z,17.06
2019-04-20T20:00:52.184Z,17.03
2019-04-20T20:03:21.600Z,17.01
2019-04-20T20:05:53.836Z,16.95
2019-04-20T20:08:24.375Z,16.89
2019-04-20T20:10:52.622Z,16.85
2019-04-20T20:13:27.368Z,16.89
2019-04-20T20:16:00.265Z,16.84
2019-04-20T20:18:40.717Z,16.75
2019-04-20T20:21:07.598Z,16.70
2019-04-20T20:23:24.003Z,16.65
2019-04-20T20:25:53.168Z,16.64
2019-04-20T20:28:32.295Z,16.59
2019-04-20T20:31:04.403Z,16.52
2019-04-20T20:33:39.228Z,16.44
2019-04-20T20:36:03.771Z,16.34
2019-04-20T20:38:31.499Z,16.33
2019-04-20T20:41:05.713Z,16.32
2019-04-20T20:43:40.677Z,16.31
2019-04-20T20:46:06.527Z,16.25
2019-04-20T20:48:38.277Z,16.22
2019-04-20T20:51:16.421Z,16.18
2019-04-20T20:53:41.443Z,16.10
2019-04-20T20:56:06.565Z,16.07
2019-04-20T20:58:43.322Z,16.04
2019-04-20T21:01:07.805Z,15.95
2019-04-20T21:03:31.222Z,15.92
2019-04-20T21:05:57.906Z,15.90
2019-04-20T21:08:26.484Z,15.86
2019-04-20T21:10:55.014Z,15.84
2019-04-20T21:13:28.374Z,15.68
2019-04-20T21:16:02.399Z,15.65
2019-04-20T21:18:44.895Z,15.62
2019-04-20T21:21:11.151Z,15.63
2019-04-20T21:23:36.828Z,15.62
2019-04-20T21:26:21.466Z,15.62
2019-04-20T21:28:41.974Z,15.49
2019-04-20T21:31:15.942Z,15.47
2019-04-20T21:33:42.916Z,15.50
2019-04-20T21:36:13.489Z,15.47
2019-04-20T21:38:43.346Z,15.47
2019-04-20T21:41:16.127Z,15.37
2019-04-20T21:43:44.404Z,15.26
2019-04-20T21:46:13.980Z,15.23
2019-04-20T21:48:57.153Z,15.17
2019-04-20T21:51:25.709Z,15.13
2019-04-20T21:53:44.276Z,15.11
2019-04-20T21:56:12.990Z,15.01
2019-04-20T21:58:48.263Z,15.10
2019-04-20T22:01:22.202Z,15.08
2019-04-20T22:03:44.602Z,14.99
2019-04-20T22:06:14.070Z,14.93
2019-04-20T22:08:47.532Z,14.78
2019-04-20T22:11:13.598Z,14.77
2019-04-20T22:13:44.582Z,14.80
2019-04-20T22:16:14.746Z,14.67
2019-04-20T22:18:52.939Z,14.67
2019-04-20T22:21:22.496Z,14.72
2019-04-20T22:24:01.840Z,14.61
2019-04-20T22:26:26.241Z,14.60
2019-04-20T22:28:44.599Z,14.62
2019-04-20T22:31:14.103Z,14.54
2019-04-20T22:33:45.078Z,14.52
2019-04-20T22:36:14.631Z,14.50
2019-04-20T22:39:03.428Z,14.47
2019-04-20T22:41:32.508Z,14.48
2019-04-20T22:44:08.606Z,14.45
2019-04-20T22:46:34.070Z,14.29
2019-04-20T22:49:21.056Z,14.27
2019-04-20T22:51:45.964Z,14.30
2019-04-20T22:54:16.909Z,14.32
2019-04-20T22:56:48.304Z,14.27
2019-04-20T22:59:11.014Z,14.13
2019-04-20T23:01:40.539Z,14.15
2019-04-20T23:04:04.395Z,14.04
2019-04-20T23:06:38.252Z,14.09
2019-04-20T23:09:07.484Z,14.08
2019-04-20T23:11:35.355Z,14.02
2019-04-20T23:14:04.693Z,13.90
2019-04-20T23:16:37.948Z,13.92
2019-04-20T23:19:04.440Z,13.95
2019-04-20T23:21:34.088Z,13.97
2019-04-20T23:24:07.875Z,13.81
2019-04-20T23:26:36.689Z,13.87
2019-04-20T23:29:03.235Z,13.81
2019-04-20T23:31:32.259Z,13.71
2019-04-20T23:34:09.186Z,13.78
2019-04-20T23:36:37.153Z,13.71
2019-04-20T23:39:03.118Z,13.68
2019-04-20T23:41:31.593Z,13.63
2019-04-20T23:44:06.198Z,13.63
2019-04-20T23:46:34.898Z,13.66
2019-04-20T23:49:27.205Z,13.61
2019-04-20T23:52:11.886Z,13.58
2019-04-20T23:54:27.424Z,13.56
2019-04-20T23:56:51.574Z,13.47
2019-04-20T23:59:25.225Z,13.43
